メインページ
METAR-TAF:

METAR-TAF

空港 :

オタワ・マクドナルド・カルティエ国際空港

オタワ, オンタリオ州, カナダ

緯度: 45-19N, 経度: 075-40W, 海抜: 116m

現時点の気象観測

当レポートは53分前の02:00(UTC)に作成
西/北西の風 6kt
気温 -9°C
湿度 85%
気圧 1021 hPa
視程: 24.1km
高度11000ftの雲はほとんどない
高度13000ftの雲はほとんどない

METAR: CYOW 070200Z 29006KT 15SM FEW110 FEW130 M09/M11 A3014 RMK AC1AC1 SLP216

時間: 21:53 (02:53 UTC)

予報

当レポートは15分前の02:38(UTC)に作成
予報は07日の 03時(UTC)から 07日の 24時(UTC)まで有効
西/北西の風 6kt
視程: 10km
高度11000ftの雲は散在している
07日の 03時(UTC)から 07日の 04時(UTC)まで一時的に
高度3000ftの雲は散在している
高度11000ftの千切れ雲あり
07日の 0400時(UTC)から
西/北西の風 6kt
視程: 10km
高度3000ftの雲は散在している
高度8000ftの千切れ雲あり
07日の 06時(UTC)から 07日の 12時(UTC)まで一時的に
高度2000ftの千切れ雲あり
高度8000ftの千切れ雲あり
07日の 1200時(UTC)から
西/北西の風 6kt
視程: 10km
高度3000ftの雲は散在している
高度5000ftの千切れ雲あり
07日の 1900時(UTC)から
西の風 7kt
視程: 10km
高度3000ftの雲はほとんどない
07日の 22時(UTC)から 07日の 24時(UTC)まで徐々に
変向風 3kt

TAF: CYOW 070238Z 0703/0724 29006KT P6SM SCT110 TEMPO 0703/0704 SCT030 BKN110 FM070400 29006KT P6SM SCT030 BKN080 TEMPO 0706/0712 BKN020 BKN080 FM071200 29006KT P6SM SCT030 BKN050 FM071900 28007KT P6SM FEW030 BECMG 0722/0724 VRB03KT RMK NXT FCST BY 070600Z

4,000以上の空港の気象観測と天気予報(METAR報とTAF報)

利用可能な観測所は地図上に黄色い丸と赤い丸で示す。

丸の上にカーソルを重ねると観測所名を参照できる。

次にクリックすると気象観測と天気予報を参照できる。

マップの切り替え:黒色「×」印の緑ボタンをクリックして拡大、「-」印の緑ボタンをクリックして縮小、緑色の三角印をクリックして隣りの地図に切り替え


METAR-TAF: